sensor_id;sensor_type;location;lat;lon;timestamp;P1;durP1;ratioP1;P2;durP2;ratioP2
40022;SDS011;25713;-35.352;149.036;2023-02-15T00:01:54;2.58;;;0.82;;
40022;SDS011;25713;-35.352;149.036;2023-02-15T00:04:24;2.95;;;0.68;;
40022;SDS011;25713;-35.352;149.036;2023-02-15T00:06:53;1.75;;;0.77;;
40022;SDS011;25713;-35.352;149.036;2023-02-15T00:09:23;1.20;;;0.80;;
40022;SDS011;25713;-35.352;149.036;2023-02-15T00:11:52;1.48;;;0.70;;
40022;SDS011;25713;-35.352;149.036;2023-02-15T00:14:24;2.20;;;0.73;;
40022;SDS011;25713;-35.352;149.036;2023-02-15T00:16:53;2.75;;;0.90;;
40022;SDS011;25713;-35.352;149.036;2023-02-15T00:19:23;1.92;;;0.88;;
40022;SDS011;25713;-35.352;149.036;2023-02-15T00:21:52;3.30;;;0.77;;
40022;SDS011;25713;-35.352;149.036;2023-02-15T00:24:22;1.38;;;0.70;;
40022;SDS011;25713;-35.352;149.036;2023-02-15T00:26:51;2.28;;;0.80;;
40022;SDS011;25713;-35.352;149.036;2023-02-15T00:29:23;1.15;;;0.70;;
40022;SDS011;25713;-35.352;149.036;2023-02-15T00:31:52;2.93;;;0.80;;
40022;SDS011;25713;-35.352;149.036;2023-02-15T00:34:25;2.58;;;0.90;;
40022;SDS011;25713;-35.352;149.036;2023-02-15T00:36:57;0.80;;;0.60;;
40022;SDS011;25713;-35.352;149.036;2023-02-15T00:39:27;2.42;;;0.70;;
40022;SDS011;25713;-35.352;149.036;2023-02-15T00:41:56;2.47;;;0.80;;
40022;SDS011;25713;-35.352;149.036;2023-02-15T00:44:27;1.35;;;0.70;;
40022;SDS011;25713;-35.352;149.036;2023-02-15T00:46:57;3.83;;;0.80;;
40022;SDS011;25713;-35.352;149.036;2023-02-15T00:49:26;3.50;;;0.90;;
40022;SDS011;25713;-35.352;149.036;2023-02-15T00:51:56;2.78;;;0.68;;
40022;SDS011;25713;-35.352;149.036;2023-02-15T00:54:25;2.75;;;0.90;;
40022;SDS011;25713;-35.352;149.036;2023-02-15T00:56:55;2.28;;;1.00;;
40022;SDS011;25713;-35.352;149.036;2023-02-15T00:59:24;3.03;;;0.85;;
40022;SDS011;25713;-35.352;149.036;2023-02-15T01:01:55;1.63;;;0.77;;
40022;SDS011;25713;-35.352;149.036;2023-02-15T01:04:25;3.17;;;0.80;;
40022;SDS011;25713;-35.352;149.036;2023-02-15T01:06:54;2.53;;;1.02;;
40022;SDS011;25713;-35.352;149.036;2023-02-15T01:09:24;4.75;;;1.00;;
40022;SDS011;25713;-35.352;149.036;2023-02-15T01:11:54;3.42;;;0.90;;
40022;SDS011;25713;-35.352;149.036;2023-02-15T01:14:23;2.70;;;1.05;;
40022;SDS011;25713;-35.352;149.036;2023-02-15T01:16:54;1.75;;;1.00;;
40022;SDS011;25713;-35.352;149.036;2023-02-15T01:19:26;3.03;;;1.00;;
40022;SDS011;25713;-35.352;149.036;2023-02-15T01:21:56;2.03;;;0.90;;
40022;SDS011;25713;-35.352;149.036;2023-02-15T01:24:25;3.08;;;1.00;;
40022;SDS011;25713;-35.352;149.036;2023-02-15T01:26:55;2.50;;;1.02;;
40022;SDS011;25713;-35.352;149.036;2023-02-15T01:29:27;1.92;;;1.20;;
40022;SDS011;25713;-35.352;149.036;2023-02-15T01:31:59;2.53;;;0.90;;
40022;SDS011;25713;-35.352;149.036;2023-02-15T01:34:29;2.92;;;1.10;;
40022;SDS011;25713;-35.352;149.036;2023-02-15T01:36:58;3.00;;;1.42;;
40022;SDS011;25713;-35.352;149.036;2023-02-15T01:39:28;2.70;;;1.33;;
40022;SDS011;25713;-35.352;149.036;2023-02-15T01:41:57;1.80;;;1.00;;
40022;SDS011;25713;-35.352;149.036;2023-02-15T01:47:17;2.95;;;1.10;;
40022;SDS011;25713;-35.352;149.036;2023-02-15T01:49:51;2.50;;;1.00;;
40022;SDS011;25713;-35.352;149.036;2023-02-15T01:52:28;1.45;;;0.85;;
40022;SDS011;25713;-35.352;149.036;2023-02-15T01:54:58;1.55;;;0.98;;
40022;SDS011;25713;-35.352;149.036;2023-02-15T01:57:30;2.28;;;1.10;;
40022;SDS011;25713;-35.352;149.036;2023-02-15T02:00:00;2.17;;;1.15;;
40022;SDS011;25713;-35.352;149.036;2023-02-15T02:02:41;2.55;;;0.95;;
40022;SDS011;25713;-35.352;149.036;2023-02-15T02:05:15;1.63;;;1.05;;
40022;SDS011;25713;-35.352;149.036;2023-02-15T02:07:45;2.20;;;1.30;;
40022;SDS011;25713;-35.352;149.036;2023-02-15T02:10:20;2.50;;;1.10;;
40022;SDS011;25713;-35.352;149.036;2023-02-15T02:12:51;3.17;;;1.20;;
40022;SDS011;25713;-35.352;149.036;2023-02-15T02:15:27;1.92;;;1.10;;
40022;SDS011;25713;-35.352;149.036;2023-02-15T02:18:07;2.30;;;0.98;;
40022;SDS011;25713;-35.352;149.036;2023-02-15T02:24:08;2.65;;;1.25;;
40022;SDS011;25713;-35.352;149.036;2023-02-15T02:36:11;2.58;;;1.00;;
40022;SDS011;25713;-35.352;149.036;2023-02-15T02:38:57;1.35;;;0.90;;
40022;SDS011;25713;-35.352;149.036;2023-02-15T02:41:38;2.17;;;1.25;;
40022;SDS011;25713;-35.352;149.036;2023-02-15T02:44:13;1.58;;;0.93;;
40022;SDS011;25713;-35.352;149.036;2023-02-15T02:46:49;1.98;;;1.20;;
40022;SDS011;25713;-35.352;149.036;2023-02-15T02:49:33;3.70;;;1.10;;
40022;SDS011;25713;-35.352;149.036;2023-02-15T02:52:04;2.65;;;1.40;;
40022;SDS011;25713;-35.352;149.036;2023-02-15T02:54:35;3.92;;;1.17;;
40022;SDS011;25713;-35.352;149.036;2023-02-15T02:57:05;2.80;;;1.17;;
40022;SDS011;25713;-35.352;149.036;2023-02-15T02:59:38;2.55;;;1.17;;
40022;SDS011;25713;-35.352;149.036;2023-02-15T03:02:13;1.52;;;1.17;;
40022;SDS011;25713;-35.352;149.036;2023-02-15T03:04:50;2.40;;;1.10;;
40022;SDS011;25713;-35.352;149.036;2023-02-15T03:07:25;4.65;;;1.20;;
40022;SDS011;25713;-35.352;149.036;2023-02-15T03:09:57;1.38;;;1.10;;
40022;SDS011;25713;-35.352;149.036;2023-02-15T03:12:29;2.37;;;1.13;;
40022;SDS011;25713;-35.352;149.036;2023-02-15T03:15:00;3.25;;;1.10;;
40022;SDS011;25713;-35.352;149.036;2023-02-15T03:17:32;2.50;;;1.38;;
40022;SDS011;25713;-35.352;149.036;2023-02-15T03:20:06;2.78;;;1.08;;
40022;SDS011;25713;-35.352;149.036;2023-02-15T03:22:38;1.90;;;1.10;;
40022;SDS011;25713;-35.352;149.036;2023-02-15T03:25:14;2.22;;;1.15;;
40022;SDS011;25713;-35.352;149.036;2023-02-15T03:27:47;2.55;;;1.10;;
40022;SDS011;25713;-35.352;149.036;2023-02-15T03:30:18;1.60;;;1.00;;
40022;SDS011;25713;-35.352;149.036;2023-02-15T03:32:49;1.40;;;1.00;;
40022;SDS011;25713;-35.352;149.036;2023-02-15T03:35:22;1.80;;;1.05;;
40022;SDS011;25713;-35.352;149.036;2023-02-15T03:37:57;2.50;;;1.20;;
40022;SDS011;25713;-35.352;149.036;2023-02-15T03:42:59;1.60;;;1.05;;
40022;SDS011;25713;-35.352;149.036;2023-02-15T03:45:34;3.90;;;1.17;;
40022;SDS011;25713;-35.352;149.036;2023-02-15T03:48:05;4.05;;;1.50;;
40022;SDS011;25713;-35.352;149.036;2023-02-15T03:50:37;1.40;;;1.00;;
40022;SDS011;25713;-35.352;149.036;2023-02-15T03:53:09;1.90;;;1.10;;
40022;SDS011;25713;-35.352;149.036;2023-02-15T03:55:42;1.58;;;1.10;;
40022;SDS011;25713;-35.352;149.036;2023-02-15T03:58:15;1.17;;;0.90;;
40022;SDS011;25713;-35.352;149.036;2023-02-15T04:00:45;3.03;;;1.20;;
40022;SDS011;25713;-35.352;149.036;2023-02-15T04:03:23;1.85;;;1.20;;
40022;SDS011;25713;-35.352;149.036;2023-02-15T04:06:00;2.90;;;1.20;;
40022;SDS011;25713;-35.352;149.036;2023-02-15T04:08:31;1.67;;;1.30;;
40022;SDS011;25713;-35.352;149.036;2023-02-15T04:11:00;1.55;;;1.00;;
40022;SDS011;25713;-35.352;149.036;2023-02-15T04:13:30;3.33;;;1.25;;
40022;SDS011;25713;-35.352;149.036;2023-02-15T04:15:59;3.20;;;1.40;;
40022;SDS011;25713;-35.352;149.036;2023-02-15T04:18:29;2.35;;;1.30;;
40022;SDS011;25713;-35.352;149.036;2023-02-15T04:21:02;1.63;;;1.13;;
40022;SDS011;25713;-35.352;149.036;2023-02-15T04:23:31;1.85;;;1.20;;
40022;SDS011;25713;-35.352;149.036;2023-02-15T04:26:03;2.13;;;1.20;;
40022;SDS011;25713;-35.352;149.036;2023-02-15T04:28:32;2.40;;;1.10;;
40022;SDS011;25713;-35.352;149.036;2023-02-15T04:31:02;2.75;;;1.20;;
40022;SDS011;25713;-35.352;149.036;2023-02-15T04:33:31;3.00;;;1.25;;
40022;SDS011;25713;-35.352;149.036;2023-02-15T04:36:02;1.40;;;1.08;;
40022;SDS011;25713;-35.352;149.036;2023-02-15T04:41:01;1.80;;;1.13;;
40022;SDS011;25713;-35.352;149.036;2023-02-15T04:43:30;2.75;;;1.48;;
40022;SDS011;25713;-35.352;149.036;2023-02-15T04:46:00;1.63;;;1.30;;
40022;SDS011;25713;-35.352;149.036;2023-02-15T04:48:29;1.70;;;1.20;;
40022;SDS011;25713;-35.352;149.036;2023-02-15T04:50:58;2.83;;;1.23;;
40022;SDS011;25713;-35.352;149.036;2023-02-15T04:53:34;1.77;;;1.13;;
40022;SDS011;25713;-35.352;149.036;2023-02-15T04:56:04;1.92;;;1.13;;
40022;SDS011;25713;-35.352;149.036;2023-02-15T04:58:33;1.48;;;1.20;;
40022;SDS011;25713;-35.352;149.036;2023-02-15T05:01:03;2.20;;;1.30;;
40022;SDS011;25713;-35.352;149.036;2023-02-15T05:03:32;1.90;;;1.35;;
40022;SDS011;25713;-35.352;149.036;2023-02-15T05:06:02;2.25;;;1.10;;
40022;SDS011;25713;-35.352;149.036;2023-02-15T05:08:34;2.80;;;1.23;;
40022;SDS011;25713;-35.352;149.036;2023-02-15T05:11:04;1.65;;;1.40;;
40022;SDS011;25713;-35.352;149.036;2023-02-15T05:13:33;1.90;;;1.20;;
40022;SDS011;25713;-35.352;149.036;2023-02-15T05:16:02;3.65;;;1.15;;
40022;SDS011;25713;-35.352;149.036;2023-02-15T05:18:32;2.75;;;1.08;;
40022;SDS011;25713;-35.352;149.036;2023-02-15T05:21:01;2.05;;;1.42;;
40022;SDS011;25713;-35.352;149.036;2023-02-15T05:23:31;4.70;;;1.17;;
40022;SDS011;25713;-35.352;149.036;2023-02-15T05:26:02;1.67;;;1.47;;
40022;SDS011;25713;-35.352;149.036;2023-02-15T05:28:32;3.33;;;1.35;;
40022;SDS011;25713;-35.352;149.036;2023-02-15T05:31:03;1.23;;;1.13;;
40022;SDS011;25713;-35.352;149.036;2023-02-15T05:33:33;1.98;;;1.20;;
40022;SDS011;25713;-35.352;149.036;2023-02-15T05:36:03;6.20;;;1.50;;
40022;SDS011;25713;-35.352;149.036;2023-02-15T05:38:35;2.22;;;1.27;;
40022;SDS011;25713;-35.352;149.036;2023-02-15T05:41:05;1.63;;;1.30;;
40022;SDS011;25713;-35.352;149.036;2023-02-15T05:43:36;2.13;;;1.45;;
40022;SDS011;25713;-35.352;149.036;2023-02-15T05:46:06;1.75;;;1.30;;
40022;SDS011;25713;-35.352;149.036;2023-02-15T05:48:36;1.33;;;1.23;;
40022;SDS011;25713;-35.352;149.036;2023-02-15T05:51:05;2.03;;;1.60;;
40022;SDS011;25713;-35.352;149.036;2023-02-15T05:53:37;2.55;;;1.30;;
40022;SDS011;25713;-35.352;149.036;2023-02-15T05:56:07;2.63;;;1.90;;
40022;SDS011;25713;-35.352;149.036;2023-02-15T05:58:37;2.75;;;1.90;;
40022;SDS011;25713;-35.352;149.036;2023-02-15T06:01:08;4.38;;;2.53;;
40022;SDS011;25713;-35.352;149.036;2023-02-15T06:03:38;7.00;;;3.15;;
40022;SDS011;25713;-35.352;149.036;2023-02-15T06:06:08;4.03;;;2.55;;
40022;SDS011;25713;-35.352;149.036;2023-02-15T06:08:39;4.72;;;2.45;;
40022;SDS011;25713;-35.352;149.036;2023-02-15T06:11:09;5.13;;;2.83;;
40022;SDS011;25713;-35.352;149.036;2023-02-15T06:13:38;4.10;;;2.80;;
40022;SDS011;25713;-35.352;149.036;2023-02-15T06:16:08;5.10;;;2.38;;
40022;SDS011;25713;-35.352;149.036;2023-02-15T06:18:37;3.40;;;2.42;;
40022;SDS011;25713;-35.352;149.036;2023-02-15T06:21:07;3.95;;;2.75;;
40022;SDS011;25713;-35.352;149.036;2023-02-15T06:23:36;5.10;;;2.95;;
40022;SDS011;25713;-35.352;149.036;2023-02-15T06:26:07;4.50;;;2.90;;
40022;SDS011;25713;-35.352;149.036;2023-02-15T06:28:37;4.13;;;3.20;;
40022;SDS011;25713;-35.352;149.036;2023-02-15T06:31:06;4.53;;;3.13;;
40022;SDS011;25713;-35.352;149.036;2023-02-15T06:33:36;4.47;;;3.00;;
40022;SDS011;25713;-35.352;149.036;2023-02-15T06:36:05;5.13;;;3.30;;
40022;SDS011;25713;-35.352;149.036;2023-02-15T06:38:35;3.72;;;2.70;;
40022;SDS011;25713;-35.352;149.036;2023-02-15T06:41:06;5.07;;;3.33;;
40022;SDS011;25713;-35.352;149.036;2023-02-15T06:43:36;3.90;;;2.72;;
40022;SDS011;25713;-35.352;149.036;2023-02-15T06:46:05;3.20;;;2.75;;
40022;SDS011;25713;-35.352;149.036;2023-02-15T06:48:35;3.65;;;2.50;;
40022;SDS011;25713;-35.352;149.036;2023-02-15T06:51:04;3.42;;;2.50;;
40022;SDS011;25713;-35.352;149.036;2023-02-15T06:53:34;2.95;;;2.05;;
40022;SDS011;25713;-35.352;149.036;2023-02-15T06:56:03;3.92;;;2.28;;
40022;SDS011;25713;-35.352;149.036;2023-02-15T06:58:35;3.03;;;2.47;;
40022;SDS011;25713;-35.352;149.036;2023-02-15T07:01:05;3.60;;;2.70;;
40022;SDS011;25713;-35.352;149.036;2023-02-15T07:03:35;2.80;;;2.28;;
40022;SDS011;25713;-35.352;149.036;2023-02-15T07:06:05;2.45;;;1.80;;
40022;SDS011;25713;-35.352;149.036;2023-02-15T07:08:35;2.53;;;1.65;;
40022;SDS011;25713;-35.352;149.036;2023-02-15T07:11:05;2.17;;;1.70;;
40022;SDS011;25713;-35.352;149.036;2023-02-15T07:13:36;2.20;;;2.00;;
40022;SDS011;25713;-35.352;149.036;2023-02-15T07:16:06;3.40;;;1.77;;
40022;SDS011;25713;-35.352;149.036;2023-02-15T07:18:35;2.28;;;1.95;;
40022;SDS011;25713;-35.352;149.036;2023-02-15T07:21:05;1.40;;;1.30;;
40022;SDS011;25713;-35.352;149.036;2023-02-15T07:23:35;2.60;;;1.63;;
40022;SDS011;25713;-35.352;149.036;2023-02-15T07:26:05;2.75;;;1.80;;
40022;SDS011;25713;-35.352;149.036;2023-02-15T07:28:37;2.47;;;1.77;;
40022;SDS011;25713;-35.352;149.036;2023-02-15T07:31:06;2.55;;;1.75;;
40022;SDS011;25713;-35.352;149.036;2023-02-15T07:33:39;2.20;;;1.80;;
40022;SDS011;25713;-35.352;149.036;2023-02-15T07:36:08;2.00;;;1.40;;
40022;SDS011;25713;-35.352;149.036;2023-02-15T07:38:38;1.80;;;1.67;;
40022;SDS011;25713;-35.352;149.036;2023-02-15T07:41:11;2.95;;;1.70;;
40022;SDS011;25713;-35.352;149.036;2023-02-15T07:43:41;3.20;;;1.77;;
40022;SDS011;25713;-35.352;149.036;2023-02-15T07:46:12;1.52;;;1.40;;
40022;SDS011;25713;-35.352;149.036;2023-02-15T07:48:44;3.35;;;1.70;;
40022;SDS011;25713;-35.352;149.036;2023-02-15T07:51:14;2.35;;;1.63;;
40022;SDS011;25713;-35.352;149.036;2023-02-15T07:53:43;2.63;;;1.70;;
40022;SDS011;25713;-35.352;149.036;2023-02-15T07:56:15;1.77;;;1.50;;
40022;SDS011;25713;-35.352;149.036;2023-02-15T07:58:44;1.85;;;1.27;;
40022;SDS011;25713;-35.352;149.036;2023-02-15T08:01:14;1.38;;;1.25;;
40022;SDS011;25713;-35.352;149.036;2023-02-15T08:03:44;2.45;;;1.30;;
40022;SDS011;25713;-35.352;149.036;2023-02-15T08:06:13;1.67;;;1.30;;
40022;SDS011;25713;-35.352;149.036;2023-02-15T08:08:43;2.75;;;1.50;;
40022;SDS011;25713;-35.352;149.036;2023-02-15T08:11:18;1.77;;;1.20;;
40022;SDS011;25713;-35.352;149.036;2023-02-15T08:13:49;1.70;;;1.45;;
40022;SDS011;25713;-35.352;149.036;2023-02-15T08:16:20;1.83;;;1.40;;
40022;SDS011;25713;-35.352;149.036;2023-02-15T08:18:52;3.35;;;1.20;;
40022;SDS011;25713;-35.352;149.036;2023-02-15T08:21:22;1.50;;;1.20;;
40022;SDS011;25713;-35.352;149.036;2023-02-15T08:23:52;1.55;;;1.23;;
40022;SDS011;25713;-35.352;149.036;2023-02-15T08:26:24;2.08;;;1.30;;
40022;SDS011;25713;-35.352;149.036;2023-02-15T08:31:22;1.90;;;1.20;;
40022;SDS011;25713;-35.352;149.036;2023-02-15T08:33:52;1.75;;;1.30;;
40022;SDS011;25713;-35.352;149.036;2023-02-15T08:36:22;2.30;;;1.42;;
40022;SDS011;25713;-35.352;149.036;2023-02-15T08:38:52;1.65;;;1.17;;
40022;SDS011;25713;-35.352;149.036;2023-02-15T08:41:24;1.30;;;1.00;;
40022;SDS011;25713;-35.352;149.036;2023-02-15T08:43:54;1.10;;;1.00;;
40022;SDS011;25713;-35.352;149.036;2023-02-15T08:46:24;1.85;;;1.10;;
40022;SDS011;25713;-35.352;149.036;2023-02-15T08:48:55;2.58;;;1.05;;
40022;SDS011;25713;-35.352;149.036;2023-02-15T08:51:26;1.63;;;1.13;;
40022;SDS011;25713;-35.352;149.036;2023-02-15T08:53:58;6.68;;;1.23;;
40022;SDS011;25713;-35.352;149.036;2023-02-15T08:56:31;1.58;;;1.17;;
40022;SDS011;25713;-35.352;149.036;2023-02-15T08:59:02;4.10;;;1.00;;
40022;SDS011;25713;-35.352;149.036;2023-02-15T09:01:33;3.20;;;1.15;;
40022;SDS011;25713;-35.352;149.036;2023-02-15T09:04:03;1.38;;;1.20;;
40022;SDS011;25713;-35.352;149.036;2023-02-15T09:06:34;2.28;;;0.70;;
40022;SDS011;25713;-35.352;149.036;2023-02-15T09:09:04;3.75;;;1.10;;
40022;SDS011;25713;-35.352;149.036;2023-02-15T09:11:37;2.33;;;0.85;;
40022;SDS011;25713;-35.352;149.036;2023-02-15T09:14:08;1.15;;;1.05;;
40022;SDS011;25713;-35.352;149.036;2023-02-15T09:16:39;1.58;;;1.20;;
40022;SDS011;25713;-35.352;149.036;2023-02-15T09:19:09;2.50;;;1.05;;
40022;SDS011;25713;-35.352;149.036;2023-02-15T09:21:39;1.67;;;1.02;;
40022;SDS011;25713;-35.352;149.036;2023-02-15T09:24:09;3.13;;;1.30;;
40022;SDS011;25713;-35.352;149.036;2023-02-15T09:26:41;2.17;;;1.30;;
40022;SDS011;25713;-35.352;149.036;2023-02-15T09:29:12;3.03;;;1.20;;
40022;SDS011;25713;-35.352;149.036;2023-02-15T09:31:43;4.43;;;1.17;;
40022;SDS011;25713;-35.352;149.036;2023-02-15T09:34:14;3.30;;;1.20;;
40022;SDS011;25713;-35.352;149.036;2023-02-15T09:36:44;5.18;;;1.25;;
40022;SDS011;25713;-35.352;149.036;2023-02-15T09:39:14;3.78;;;1.30;;
40022;SDS011;25713;-35.352;149.036;2023-02-15T09:45:01;6.10;;;1.35;;
40022;SDS011;25713;-35.352;149.036;2023-02-15T09:47:52;3.25;;;1.23;;
40022;SDS011;25713;-35.352;149.036;2023-02-15T09:50:33;4.32;;;1.27;;
40022;SDS011;25713;-35.352;149.036;2023-02-15T09:53:19;2.70;;;1.10;;
40022;SDS011;25713;-35.352;149.036;2023-02-15T09:56:14;2.28;;;1.45;;
40022;SDS011;25713;-35.352;149.036;2023-02-15T09:58:54;2.47;;;1.38;;
40022;SDS011;25713;-35.352;149.036;2023-02-15T10:01:33;4.72;;;1.30;;
40022;SDS011;25713;-35.352;149.036;2023-02-15T10:04:17;3.78;;;1.20;;
40022;SDS011;25713;-35.352;149.036;2023-02-15T10:06:57;5.80;;;1.42;;
40022;SDS011;25713;-35.352;149.036;2023-02-15T10:09:41;3.33;;;1.20;;
40022;SDS011;25713;-35.352;149.036;2023-02-15T10:12:22;4.05;;;1.30;;
40022;SDS011;25713;-35.352;149.036;2023-02-15T10:15:08;2.90;;;1.15;;
40022;SDS011;25713;-35.352;149.036;2023-02-15T10:17:52;4.30;;;1.20;;
40022;SDS011;25713;-35.352;149.036;2023-02-15T10:20:32;5.20;;;1.75;;
40022;SDS011;25713;-35.352;149.036;2023-02-15T10:23:15;2.70;;;1.45;;
40022;SDS011;25713;-35.352;149.036;2023-02-15T10:25:56;4.78;;;1.23;;
40022;SDS011;25713;-35.352;149.036;2023-02-15T10:28:36;4.60;;;1.30;;
40022;SDS011;25713;-35.352;149.036;2023-02-15T10:31:17;4.10;;;1.20;;
40022;SDS011;25713;-35.352;149.036;2023-02-15T10:34:08;2.35;;;1.25;;
40022;SDS011;25713;-35.352;149.036;2023-02-15T10:36:46;3.10;;;1.25;;
40022;SDS011;25713;-35.352;149.036;2023-02-15T10:39:34;4.78;;;1.48;;
40022;SDS011;25713;-35.352;149.036;2023-02-15T10:42:16;6.07;;;1.20;;
40022;SDS011;25713;-35.352;149.036;2023-02-15T10:44:57;6.57;;;1.38;;
40022;SDS011;25713;-35.352;149.036;2023-02-15T10:50:34;4.85;;;1.38;;
40022;SDS011;25713;-35.352;149.036;2023-02-15T10:53:17;3.38;;;1.33;;
40022;SDS011;25713;-35.352;149.036;2023-02-15T10:56:10;3.22;;;1.45;;
40022;SDS011;25713;-35.352;149.036;2023-02-15T10:58:49;2.53;;;1.20;;
40022;SDS011;25713;-35.352;149.036;2023-02-15T11:01:48;4.00;;;1.23;;
40022;SDS011;25713;-35.352;149.036;2023-02-15T11:04:39;1.90;;;1.10;;
40022;SDS011;25713;-35.352;149.036;2023-02-15T11:07:15;2.47;;;1.10;;
40022;SDS011;25713;-35.352;149.036;2023-02-15T11:09:47;4.53;;;1.60;;
40022;SDS011;25713;-35.352;149.036;2023-02-15T11:12:20;1.98;;;1.17;;
40022;SDS011;25713;-35.352;149.036;2023-02-15T11:14:52;3.28;;;1.30;;
40022;SDS011;25713;-35.352;149.036;2023-02-15T11:17:26;5.03;;;1.38;;
40022;SDS011;25713;-35.352;149.036;2023-02-15T11:20:08;2.55;;;1.27;;
40022;SDS011;25713;-35.352;149.036;2023-02-15T11:22:47;3.58;;;1.20;;
40022;SDS011;25713;-35.352;149.036;2023-02-15T11:25:20;4.65;;;1.05;;
40022;SDS011;25713;-35.352;149.036;2023-02-15T11:27:53;4.80;;;1.20;;
40022;SDS011;25713;-35.352;149.036;2023-02-15T11:30:24;2.60;;;1.20;;
40022;SDS011;25713;-35.352;149.036;2023-02-15T11:33:04;4.00;;;1.33;;
40022;SDS011;25713;-35.352;149.036;2023-02-15T11:35:46;2.95;;;1.20;;
40022;SDS011;25713;-35.352;149.036;2023-02-15T11:38:21;4.20;;;1.30;;
40022;SDS011;25713;-35.352;149.036;2023-02-15T11:40:52;5.07;;;1.20;;
40022;SDS011;25713;-35.352;149.036;2023-02-15T11:43:26;2.65;;;1.40;;
40022;SDS011;25713;-35.352;149.036;2023-02-15T11:46:01;2.75;;;1.25;;
40022;SDS011;25713;-35.352;149.036;2023-02-15T11:48:31;2.95;;;1.40;;
40022;SDS011;25713;-35.352;149.036;2023-02-15T11:51:04;3.00;;;1.13;;
40022;SDS011;25713;-35.352;149.036;2023-02-15T11:53:38;3.45;;;1.15;;
40022;SDS011;25713;-35.352;149.036;2023-02-15T11:56:12;1.73;;;0.93;;
40022;SDS011;25713;-35.352;149.036;2023-02-15T11:58:43;3.42;;;1.20;;
40022;SDS011;25713;-35.352;149.036;2023-02-15T12:01:18;2.53;;;1.27;;
40022;SDS011;25713;-35.352;149.036;2023-02-15T12:03:52;3.08;;;1.08;;
40022;SDS011;25713;-35.352;149.036;2023-02-15T12:06:30;2.88;;;1.08;;
40022;SDS011;25713;-35.352;149.036;2023-02-15T12:09:04;3.97;;;1.27;;
40022;SDS011;25713;-35.352;149.036;2023-02-15T12:11:41;5.55;;;1.45;;
40022;SDS011;25713;-35.352;149.036;2023-02-15T12:14:11;4.15;;;1.25;;
40022;SDS011;25713;-35.352;149.036;2023-02-15T12:16:41;2.80;;;1.10;;
40022;SDS011;25713;-35.352;149.036;2023-02-15T12:19:23;2.50;;;1.00;;
40022;SDS011;25713;-35.352;149.036;2023-02-15T12:22:00;2.95;;;1.20;;
40022;SDS011;25713;-35.352;149.036;2023-02-15T12:24:32;3.40;;;1.27;;
40022;SDS011;25713;-35.352;149.036;2023-02-15T12:27:05;2.47;;;1.00;;
40022;SDS011;25713;-35.352;149.036;2023-02-15T12:29:41;3.13;;;1.08;;
40022;SDS011;25713;-35.352;149.036;2023-02-15T12:32:16;2.85;;;1.00;;
40022;SDS011;25713;-35.352;149.036;2023-02-15T12:34:49;2.42;;;1.10;;
40022;SDS011;25713;-35.352;149.036;2023-02-15T12:37:26;2.08;;;1.00;;
40022;SDS011;25713;-35.352;149.036;2023-02-15T12:39:58;4.18;;;1.13;;
40022;SDS011;25713;-35.352;149.036;2023-02-15T12:42:40;3.03;;;1.33;;
40022;SDS011;25713;-35.352;149.036;2023-02-15T12:45:20;2.15;;;1.40;;
40022;SDS011;25713;-35.352;149.036;2023-02-15T12:48:13;3.53;;;1.05;;
40022;SDS011;25713;-35.352;149.036;2023-02-15T12:50:43;3.47;;;1.40;;
40022;SDS011;25713;-35.352;149.036;2023-02-15T12:53:18;2.05;;;1.00;;
40022;SDS011;25713;-35.352;149.036;2023-02-15T12:55:52;2.50;;;0.93;;
40022;SDS011;25713;-35.352;149.036;2023-02-15T12:58:23;2.08;;;1.00;;
40022;SDS011;25713;-35.352;149.036;2023-02-15T13:01:03;2.20;;;1.17;;
40022;SDS011;25713;-35.352;149.036;2023-02-15T13:03:49;1.83;;;1.20;;
40022;SDS011;25713;-35.352;149.036;2023-02-15T13:06:25;1.45;;;1.02;;
40022;SDS011;25713;-35.352;149.036;2023-02-15T13:09:05;1.80;;;1.10;;
40022;SDS011;25713;-35.352;149.036;2023-02-15T13:11:41;1.33;;;1.10;;
40022;SDS011;25713;-35.352;149.036;2023-02-15T13:14:17;2.78;;;1.13;;
40022;SDS011;25713;-35.352;149.036;2023-02-15T13:16:49;3.45;;;1.25;;
40022;SDS011;25713;-35.352;149.036;2023-02-15T13:19:22;3.10;;;1.20;;
40022;SDS011;25713;-35.352;149.036;2023-02-15T13:22:01;4.28;;;1.40;;
40022;SDS011;25713;-35.352;149.036;2023-02-15T13:24:37;2.28;;;1.60;;
40022;SDS011;25713;-35.352;149.036;2023-02-15T13:27:12;1.95;;;1.13;;
40022;SDS011;25713;-35.352;149.036;2023-02-15T13:29:44;2.95;;;1.13;;
40022;SDS011;25713;-35.352;149.036;2023-02-15T13:32:22;4.20;;;1.20;;
40022;SDS011;25713;-35.352;149.036;2023-02-15T13:34:56;1.95;;;1.10;;
40022;SDS011;25713;-35.352;149.036;2023-02-15T13:37:34;2.85;;;1.63;;
40022;SDS011;25713;-35.352;149.036;2023-02-15T13:40:28;3.05;;;1.30;;
40022;SDS011;25713;-35.352;149.036;2023-02-15T13:43:02;1.95;;;1.00;;
40022;SDS011;25713;-35.352;149.036;2023-02-15T13:45:43;2.33;;;1.20;;
40022;SDS011;25713;-35.352;149.036;2023-02-15T13:48:25;2.45;;;1.05;;
40022;SDS011;25713;-35.352;149.036;2023-02-15T13:51:05;2.30;;;1.00;;
40022;SDS011;25713;-35.352;149.036;2023-02-15T13:53:48;2.20;;;1.00;;
40022;SDS011;25713;-35.352;149.036;2023-02-15T13:56:42;3.55;;;1.40;;
40022;SDS011;25713;-35.352;149.036;2023-02-15T14:05:15;3.28;;;1.27;;
40022;SDS011;25713;-35.352;149.036;2023-02-15T14:07:59;2.35;;;1.10;;
40022;SDS011;25713;-35.352;149.036;2023-02-15T14:10:39;2.30;;;1.15;;
40022;SDS011;25713;-35.352;149.036;2023-02-15T14:16:29;4.63;;;1.20;;
40022;SDS011;25713;-35.352;149.036;2023-02-15T14:19:05;3.47;;;1.25;;
40022;SDS011;25713;-35.352;149.036;2023-02-15T14:21:44;2.67;;;1.15;;
40022;SDS011;25713;-35.352;149.036;2023-02-15T14:24:20;3.08;;;1.40;;
40022;SDS011;25713;-35.352;149.036;2023-02-15T14:27:01;2.20;;;1.10;;
40022;SDS011;25713;-35.352;149.036;2023-02-15T14:29:43;2.72;;;1.23;;
40022;SDS011;25713;-35.352;149.036;2023-02-15T14:32:20;2.03;;;1.20;;
40022;SDS011;25713;-35.352;149.036;2023-02-15T14:34:56;1.75;;;1.20;;
40022;SDS011;25713;-35.352;149.036;2023-02-15T14:37:33;3.33;;;1.20;;
40022;SDS011;25713;-35.352;149.036;2023-02-15T14:40:12;3.10;;;1.50;;
40022;SDS011;25713;-35.352;149.036;2023-02-15T14:42:53;1.50;;;1.20;;
40022;SDS011;25713;-35.352;149.036;2023-02-15T14:45:29;1.75;;;1.08;;
40022;SDS011;25713;-35.352;149.036;2023-02-15T14:48:09;1.70;;;1.20;;
40022;SDS011;25713;-35.352;149.036;2023-02-15T16:02:53;1.80;;;1.30;;
40022;SDS011;25713;-35.352;149.036;2023-02-15T16:05:23;3.28;;;1.48;;
40022;SDS011;25713;-35.352;149.036;2023-02-15T16:07:52;3.15;;;1.40;;
40022;SDS011;25713;-35.352;149.036;2023-02-15T16:10:22;1.95;;;1.40;;
40022;SDS011;25713;-35.352;149.036;2023-02-15T16:12:52;1.90;;;1.23;;
40022;SDS011;25713;-35.352;149.036;2023-02-15T16:15:23;3.25;;;1.30;;
40022;SDS011;25713;-35.352;149.036;2023-02-15T16:17:59;3.95;;;1.40;;
40022;SDS011;25713;-35.352;149.036;2023-02-15T16:20:29;2.47;;;1.38;;
40022;SDS011;25713;-35.352;149.036;2023-02-15T16:23:06;3.70;;;1.38;;
40022;SDS011;25713;-35.352;149.036;2023-02-15T16:25:46;3.58;;;1.45;;
40022;SDS011;25713;-35.352;149.036;2023-02-15T16:28:28;2.20;;;1.17;;
40022;SDS011;25713;-35.352;149.036;2023-02-15T16:31:04;3.13;;;1.60;;
40022;SDS011;25713;-35.352;149.036;2023-02-15T16:33:39;1.70;;;1.30;;
40022;SDS011;25713;-35.352;149.036;2023-02-15T16:36:10;3.47;;;1.48;;